Time;durP1;ratioP1;P1;durP2;ratioP2;P2;SDS_P1;SDS_P2;PMS_P1;PMS_P2;Temp;Humidity;BMP_temperature;BMP_pressure;BME280_temperature;BME280_humidity;BME280_pressure;Samples;Min_cycle;Max_cycle;Signal;HPM_P1;HPM_P2
2023/12/28 00:01:44;;;;;;;6.00;2.30;;;;;;;3.64;100.00;98860.34;5052920;28;20033;-56
2023/12/28 00:04:09;;;;;;;6.13;2.30;;;;;;;3.43;100.00;98850.00;5053303;28;20024;-56
2023/12/28 00:06:34;;;;;;;5.25;2.35;;;;;;;3.54;100.00;98854.25;5053116;28;20025;-56
2023/12/28 00:09:02;;;;;;;6.72;2.25;;;;;;;3.57;100.00;98867.31;5053149;28;20040;-56
2023/12/28 00:11:28;;;;;;;3.97;2.10;;;;;;;3.60;100.00;98871.50;5053485;28;20025;-55
2023/12/28 00:13:53;;;;;;;3.40;1.75;;;;;;;3.55;100.00;98863.94;5050363;28;20363;-56
2023/12/28 00:16:18;;;;;;;4.90;2.60;;;;;;;3.43;100.00;98879.41;5050949;28;20397;-55
2023/12/28 00:18:44;;;;;;;8.05;2.25;;;;;;;3.28;100.00;98887.16;5052027;28;20020;-56
2023/12/28 00:21:09;;;;;;;3.53;2.03;;;;;;;3.26;100.00;98890.97;5052809;28;20055;-56
2023/12/28 00:23:35;;;;;;;4.60;2.17;;;;;;;3.28;100.00;98897.00;5052621;28;20028;-56
2023/12/28 00:26:00;;;;;;;5.97;2.25;;;;;;;3.39;100.00;98891.41;5054157;28;20025;-55
2023/12/28 00:28:26;;;;;;;5.25;2.40;;;;;;;3.37;100.00;98893.38;5052618;28;20033;-55
2023/12/28 00:30:51;;;;;;;4.68;2.15;;;;;;;3.41;100.00;98888.59;5052875;28;20075;-56
2023/12/28 00:33:16;;;;;;;3.85;2.10;;;;;;;3.38;100.00;98886.19;5052575;28;20040;-55
2023/12/28 00:35:42;;;;;;;5.28;2.22;;;;;;;3.36;100.00;98880.19;5052748;28;20029;-55
2023/12/28 00:38:07;;;;;;;4.30;2.30;;;;;;;3.40;100.00;98873.53;5052916;28;20027;-56
2023/12/28 00:40:33;;;;;;;6.47;2.03;;;;;;;3.31;100.00;98867.28;5053123;28;20048;-55
2023/12/28 00:42:58;;;;;;;5.60;1.80;;;;;;;3.29;100.00;98875.44;5050481;28;20029;-55
2023/12/28 00:45:24;;;;;;;5.78;2.67;;;;;;;3.34;100.00;98882.19;5052282;28;20029;-55
2023/12/28 00:47:51;;;;;;;6.03;2.60;;;;;;;3.35;100.00;98873.16;5053637;28;20029;-55
2023/12/28 00:50:17;;;;;;;6.90;2.42;;;;;;;3.32;100.00;98876.97;5051393;28;20423;-55
2023/12/28 00:52:43;;;;;;;5.50;2.50;;;;;;;3.28;100.00;98884.47;5052753;28;20029;-55
2023/12/28 00:55:10;;;;;;;5.82;2.67;;;;;;;3.27;100.00;98885.47;5051020;28;20095;-55
2023/12/28 00:57:35;;;;;;;6.20;2.60;;;;;;;3.18;100.00;98878.38;5052064;28;20378;-55
2023/12/28 01:00:01;;;;;;;3.58;1.77;;;;;;;3.18;100.00;98880.22;5049963;28;20028;-55
2023/12/28 01:02:27;;;;;;;5.90;2.00;;;;;;;3.19;100.00;98879.19;5051145;28;20028;-55
2023/12/28 01:04:52;;;;;;;4.30;2.05;;;;;;;3.17;100.00;98890.06;5050640;28;20037;-55
2023/12/28 01:07:18;;;;;;;4.43;1.83;;;;;;;3.42;100.00;98882.22;5053164;28;20057;-55
2023/12/28 01:09:43;;;;;;;3.38;1.90;;;;;;;3.66;100.00;98882.38;5051678;28;20047;-55
2023/12/28 01:12:09;;;;;;;4.03;2.00;;;;;;;3.64;100.00;98889.75;5050417;28;20120;-55
2023/12/28 01:14:34;;;;;;;3.95;1.92;;;;;;;3.76;100.00;98889.50;5052878;28;20039;-55
2023/12/28 01:17:00;;;;;;;3.42;2.00;;;;;;;3.40;100.00;98862.81;5052253;28;20396;-55
2023/12/28 01:19:25;;;;;;;3.08;1.58;;;;;;;3.40;100.00;98881.53;5051115;28;20043;-55
2023/12/28 01:21:50;;;;;;;5.78;1.90;;;;;;;3.22;100.00;98874.41;5052440;28;20387;-55
2023/12/28 01:24:16;;;;;;;3.80;1.98;;;;;;;3.43;100.00;98887.44;5054804;28;20036;-55
2023/12/28 01:26:41;;;;;;;5.38;2.03;;;;;;;3.32;100.00;98892.19;5066941;28;20020;-55
2023/12/28 01:29:07;;;;;;;2.83;1.55;;;;;;;3.27;100.00;98901.53;5052745;28;20029;-56
2023/12/28 01:31:33;;;;;;;3.95;1.85;;;;;;;3.32;100.00;98894.84;5060669;28;20467;-55
2023/12/28 01:33:59;;;;;;;3.80;1.85;;;;;;;3.36;100.00;98906.94;5053071;28;20049;-55
2023/12/28 01:36:25;;;;;;;3.05;1.50;;;;;;;3.33;100.00;98896.53;5060864;28;20433;-55
2023/12/28 01:38:51;;;;;;;2.60;1.75;;;;;;;3.32;100.00;98905.56;5050745;28;20076;-55
2023/12/28 01:41:17;;;;;;;2.97;1.60;;;;;;;3.16;100.00;98888.38;5071220;22;20056;-80
2023/12/28 01:43:42;;;;;;;4.35;1.85;;;;;;;3.10;100.00;98891.66;5056109;28;20035;-80
2023/12/28 01:46:13;;;;;;;4.65;2.00;;;;;;;3.11;100.00;98898.69;5050919;28;20045;-81
2023/12/28 01:48:39;;;;;;;4.03;2.00;;;;;;;3.11;100.00;98914.72;5039884;28;20552;-80
2023/12/28 01:51:04;;;;;;;4.43;2.40;;;;;;;3.03;100.00;98922.66;5061565;28;20053;-80
2023/12/28 01:53:30;;;;;;;7.70;2.00;;;;;;;2.81;100.00;98918.63;5081415;28;20056;-80
2023/12/28 01:55:55;;;;;;;3.25;1.92;;;;;;;2.62;100.00;98901.72;5076546;28;20028;-81
2023/12/28 01:58:21;;;;;;;3.53;1.70;;;;;;;2.62;100.00;98898.22;5113653;28;20064;-80
2023/12/28 02:00:47;;;;;;;3.08;1.80;;;;;;;2.51;100.00;98893.91;5075179;28;20024;-80
2023/12/28 02:03:12;;;;;;;4.38;1.77;;;;;;;2.59;100.00;98922.53;5072490;28;20028;-80
2023/12/28 02:05:37;;;;;;;4.55;1.90;;;;;;;2.50;100.00;98920.78;5064650;28;20070;-79
2023/12/28 02:08:03;;;;;;;3.85;1.95;;;;;;;2.54;100.00;98932.81;5076107;28;20033;-81
2023/12/28 02:10:29;;;;;;;4.78;2.17;;;;;;;2.70;100.00;98951.72;5064604;28;20048;-80
2023/12/28 02:12:55;;;;;;;6.20;2.20;;;;;;;2.84;100.00;98939.69;5062180;28;20035;-80
2023/12/28 02:15:21;;;;;;;4.15;2.35;;;;;;;2.93;100.00;98943.28;5078649;28;20088;-80
2023/12/28 02:18:00;;;;;;;4.00;2.00;;;;;;;3.19;100.00;98943.38;5064029;28;20056;-79
2023/12/28 02:20:29;;;;;;;5.72;1.70;;;;;;;3.32;100.00;98948.34;5066237;28;20032;-80
2023/12/28 02:22:55;;;;;;;6.68;1.65;;;;;;;3.22;100.00;98927.88;5074071;28;20021;-80
2023/12/28 02:25:20;;;;;;;4.30;1.80;;;;;;;3.44;100.00;98926.56;5076870;28;20024;-80
2023/12/28 02:27:47;;;;;;;3.75;1.77;;;;;;;3.82;100.00;98937.03;5069224;28;20070;-80
2023/12/28 02:30:15;;;;;;;3.10;1.35;;;;;;;4.22;100.00;98938.25;5082632;28;20108;-81
2023/12/28 02:33:19;;;;;;;4.80;1.98;;;;;;;4.46;100.00;98938.38;5088189;28;20024;-80
2023/12/28 02:35:55;;;;;;;4.65;1.88;;;;;;;4.55;100.00;98934.72;5061729;28;20069;-81
2023/12/28 02:38:23;;;;;;;3.10;1.60;;;;;;;4.56;100.00;98920.34;5080437;28;20035;-80
2023/12/28 02:40:49;;;;;;;3.67;1.77;;;;;;;4.74;100.00;98909.53;5061573;28;20028;-80
2023/12/28 02:43:15;;;;;;;3.50;1.50;;;;;;;4.95;100.00;98926.97;5064049;28;20028;-80
2023/12/28 02:45:40;;;;;;;6.75;1.63;;;;;;;4.97;100.00;98927.66;5073932;28;20036;-80
2023/12/28 02:48:06;;;;;;;3.25;1.52;;;;;;;4.93;100.00;98919.09;5046320;28;20025;-80
2023/12/28 02:50:33;;;;;;;3.95;1.80;;;;;;;4.93;100.00;98926.31;5073224;28;20111;-80
2023/12/28 02:52:58;;;;;;;3.90;1.55;;;;;;;5.03;100.00;98919.81;5052502;28;20367;-79
2023/12/28 02:55:24;;;;;;;4.15;1.75;;;;;;;4.99;100.00;98902.34;5074122;28;20090;-81
2023/12/28 02:57:51;;;;;;;2.63;1.45;;;;;;;5.10;100.00;98919.13;5065943;28;20078;-81
2023/12/28 03:00:16;;;;;;;3.00;1.48;;;;;;;4.87;100.00;98892.09;5069801;28;20043;-81
2023/12/28 03:02:42;;;;;;;3.38;1.60;;;;;;;5.07;100.00;98906.88;5070759;28;20032;-80
2023/12/28 03:05:08;;;;;;;3.65;1.63;;;;;;;5.23;100.00;98903.38;5071410;28;20111;-79
2023/12/28 03:07:34;;;;;;;3.03;1.50;;;;;;;5.33;100.00;98901.38;5068465;28;20104;-81
2023/12/28 03:09:59;;;;;;;5.85;2.25;;;;;;;5.45;100.00;98918.00;5076815;28;20382;-80
2023/12/28 03:12:24;;;;;;;4.57;1.85;;;;;;;5.51;100.00;98927.22;5068995;28;20028;-81
2023/12/28 03:14:50;;;;;;;5.10;1.67;;;;;;;5.47;100.00;98927.53;5066173;28;20031;-81
2023/12/28 03:17:15;;;;;;;3.97;1.65;;;;;;;5.49;100.00;98928.22;5055882;28;20089;-81
2023/12/28 03:19:40;;;;;;;4.88;1.80;;;;;;;5.44;100.00;98917.13;5090650;28;20029;-81
2023/12/28 03:22:06;;;;;;;4.28;1.80;;;;;;;5.43;100.00;98898.53;5070374;28;20496;-80
2023/12/28 03:24:31;;;;;;;4.38;1.70;;;;;;;5.55;100.00;98896.34;5076985;28;20024;-81
2023/12/28 03:26:56;;;;;;;2.60;1.40;;;;;;;5.82;100.00;98908.56;5085144;28;20032;-79
2023/12/28 03:29:22;;;;;;;4.00;1.60;;;;;;;6.10;100.00;98900.97;5069245;28;20032;-81
2023/12/28 03:31:47;;;;;;;2.63;1.45;;;;;;;6.14;100.00;98878.13;5071378;28;20040;-80
2023/12/28 03:34:12;;;;;;;2.15;1.08;;;;;;;6.39;100.00;98894.16;5064674;28;20055;-80
2023/12/28 03:36:38;;;;;;;2.88;1.17;;;;;;;6.44;100.00;98902.53;5075129;28;20032;-80
2023/12/28 03:39:06;;;;;;;2.75;1.35;;;;;;;6.34;100.00;98906.28;5077819;28;20020;-80
2023/12/28 03:41:31;;;;;;;5.88;1.40;;;;;;;6.27;100.00;98907.97;5085502;28;20095;-81
2023/12/28 03:43:57;;;;;;;2.95;1.15;;;;;;;6.10;100.00;98914.41;5083955;28;20642;-81
2023/12/28 03:46:23;;;;;;;2.42;1.27;;;;;;;5.87;100.00;98915.09;5061457;28;20029;-81
2023/12/28 03:48:48;;;;;;;4.15;1.40;;;;;;;5.75;100.00;98913.78;5075606;28;20026;-82
2023/12/28 03:51:16;;;;;;;3.72;1.30;;;;;;;5.62;100.00;98910.75;5055479;28;20033;-82
2023/12/28 03:53:42;;;;;;;2.13;1.20;;;;;;;5.69;100.00;98912.59;5079125;28;20021;-82
2023/12/28 03:56:07;;;;;;;3.45;1.52;;;;;;;5.91;100.00;98919.09;5068058;28;20427;-81
2023/12/28 03:58:33;;;;;;;2.83;1.30;;;;;;;6.05;100.00;98914.06;5073192;28;20024;-81
2023/12/28 04:00:58;;;;;;;2.88;1.35;;;;;;;6.16;100.00;98892.25;5072052;28;20047;-80
2023/12/28 04:03:24;;;;;;;2.80;1.40;;;;;;;6.42;100.00;98912.63;5096117;28;20050;-81
2023/12/28 04:05:50;;;;;;;6.63;1.80;;;;;;;6.51;100.00;98895.44;5067002;28;20034;-80
2023/12/28 04:08:16;;;;;;;2.25;1.40;;;;;;;6.46;100.00;98874.47;5064923;28;21539;-79
2023/12/28 04:10:41;;;;;;;3.47;1.23;;;;;;;6.73;100.00;98886.63;5076410;28;20043;-80
2023/12/28 04:13:06;;;;;;;2.38;1.25;;;;;;;6.65;100.00;98858.91;5092644;28;20078;-81
2023/12/28 04:15:31;;;;;;;6.75;1.45;;;;;;;7.05;100.00;98900.88;5090504;28;20035;-80
2023/12/28 04:17:57;;;;;;;2.63;1.17;;;;;;;7.22;100.00;98898.91;5063069;28;20553;-81
2023/12/28 04:20:23;;;;;;;2.33;1.20;;;;;;;7.32;100.00;98909.44;5072902;28;20024;-82
2023/12/28 04:22:48;;;;;;;3.53;1.30;;;;;;;7.29;100.00;98899.03;5088373;28;20031;-80
2023/12/28 04:25:16;;;;;;;2.13;1.20;;;;;;;7.58;100.00;98907.19;5072794;28;20046;-81
2023/12/28 04:27:42;;;;;;;2.33;1.10;;;;;;;7.74;100.00;98899.97;5071245;28;20163;-80
2023/12/28 04:30:08;;;;;;;2.10;1.20;;;;;;;7.78;100.00;98907.53;5059503;28;20546;-80
2023/12/28 04:32:33;;;;;;;1.95;1.00;;;;;;;7.65;100.00;98873.13;5069451;28;20028;-80
2023/12/28 04:34:58;;;;;;;2.35;1.00;;;;;;;7.76;100.00;98871.84;5060235;28;20028;-80
2023/12/28 04:37:26;;;;;;;2.47;1.40;;;;;;;7.87;100.00;98866.00;5067234;28;20070;-80
2023/12/28 04:39:51;;;;;;;2.50;1.10;;;;;;;7.89;100.00;98868.53;5066892;28;20083;-80
2023/12/28 04:42:16;;;;;;;3.50;1.30;;;;;;;7.82;100.00;98863.03;5071894;28;20024;-82
2023/12/28 04:44:41;;;;;;;2.75;1.20;;;;;;;7.77;100.00;98841.19;5072856;28;20479;-81
2023/12/28 04:47:07;;;;;;;4.43;1.13;;;;;;;7.99;99.65;98865.53;5059661;28;20035;-80
2023/12/28 04:49:32;;;;;;;2.88;1.10;;;;;;;7.97;99.51;98863.03;5082611;28;20120;-80
2023/12/28 04:51:57;;;;;;;2.88;1.00;;;;;;;8.08;98.40;98865.28;5071797;28;20217;-80
2023/12/28 04:54:23;;;;;;;2.13;1.25;;;;;;;8.04;98.48;98839.75;5073470;28;20050;-79
2023/12/28 04:56:48;;;;;;;2.55;1.10;;;;;;;8.11;96.73;98827.16;5090165;28;20045;-79
2023/12/28 04:59:14;;;;;;;2.88;1.20;;;;;;;8.20;95.78;98829.75;5069227;28;20134;-80
2023/12/28 05:01:43;;;;;;;2.10;1.15;;;;;;;8.37;94.69;98857.38;5071295;28;20028;-79
2023/12/28 05:04:08;;;;;;;1.80;1.20;;;;;;;8.39;93.32;98856.19;5063747;28;20025;-80
2023/12/28 05:06:34;;;;;;;1.80;1.10;;;;;;;8.62;92.54;98887.56;5086973;28;20025;-80
2023/12/28 05:08:59;;;;;;;3.70;1.42;;;;;;;8.45;93.31;98886.94;5073162;28;20036;-81
2023/12/28 05:11:25;;;;;;;1.85;1.02;;;;;;;8.31;94.80;98902.09;5075922;28;20025;-81
2023/12/28 05:13:50;;;;;;;1.83;0.90;;;;;;;8.13;96.63;98908.66;5070401;28;20386;-82
2023/12/28 05:16:15;;;;;;;5.07;1.20;;;;;;;7.64;99.41;98871.44;5061984;28;20052;-81
2023/12/28 05:18:41;;;;;;;5.05;1.25;;;;;;;7.83;100.00;98915.03;5042721;28;20111;-82
2023/12/28 05:21:06;;;;;;;2.65;1.27;;;;;;;7.63;100.00;98903.97;5058409;28;20437;-82
2023/12/28 05:23:31;;;;;;;2.22;1.08;;;;;;;7.55;100.00;98912.94;5074414;28;20024;-82
2023/12/28 05:25:56;;;;;;;2.63;1.15;;;;;;;7.50;100.00;98917.19;5077995;28;20558;-81
2023/12/28 05:28:22;;;;;;;3.80;1.40;;;;;;;7.31;100.00;98897.81;5053039;28;20389;-82
2023/12/28 05:30:47;;;;;;;3.90;1.15;;;;;;;7.40;100.00;98909.34;5076473;28;20073;-81
2023/12/28 05:33:12;;;;;;;1.95;1.10;;;;;;;7.29;100.00;98916.00;5067870;28;20024;-82
2023/12/28 05:35:37;;;;;;;6.15;2.75;;;;;;;7.14;100.00;98915.09;5064580;28;20115;-81
2023/12/28 05:38:03;;;;;;;3.55;1.85;;;;;;;7.23;100.00;98955.25;5085049;28;20048;-81
2023/12/28 05:40:29;;;;;;;3.10;1.75;;;;;;;7.16;100.00;98956.97;5048809;28;20074;-80
2023/12/28 05:42:54;;;;;;;10.02;3.30;;;;;;;7.08;100.00;98931.97;5054826;28;20024;-80
2023/12/28 05:45:19;;;;;;;6.40;2.55;;;;;;;7.39;100.00;98924.69;5067416;28;20045;-80
2023/12/28 05:47:45;;;;;;;5.60;2.95;;;;;;;7.40;100.00;98922.81;5089690;28;20157;-80
2023/12/28 05:50:10;;;;;;;6.45;2.60;;;;;;;7.44;100.00;98951.03;5064580;28;20024;-81
2023/12/28 05:52:35;;;;;;;5.82;2.38;;;;;;;7.31;100.00;98953.47;5071385;28;20082;-80
2023/12/28 05:55:01;;;;;;;3.20;1.40;;;;;;;7.23;100.00;98949.84;5074765;28;20508;-81
2023/12/28 05:57:29;;;;;;;4.20;2.28;;;;;;;7.25;100.00;98952.34;5083537;28;20112;-81
2023/12/28 05:59:55;;;;;;;3.55;1.60;;;;;;;7.29;100.00;98974.38;5074488;28;20020;-81
2023/12/28 06:02:20;;;;;;;3.25;1.58;;;;;;;7.13;100.00;98949.25;5066427;28;20031;-81
2023/12/28 06:04:45;;;;;;;2.67;1.20;;;;;;;7.25;100.00;98972.03;5080683;28;20081;-81
2023/12/28 06:07:11;;;;;;;3.17;1.50;;;;;;;7.25;100.00;98972.03;5063567;28;20062;-79
2023/12/28 06:09:38;;;;;;;2.97;1.58;;;;;;;7.35;100.00;98968.28;5065322;28;20028;-79
2023/12/28 06:12:04;;;;;;;3.35;1.50;;;;;;;7.37;100.00;98969.78;5071704;28;20052;-79
2023/12/28 06:14:30;;;;;;;3.53;1.60;;;;;;;7.40;100.00;98963.19;5056227;28;20141;-80
2023/12/28 06:16:55;;;;;;;2.50;1.30;;;;;;;7.49;100.00;98956.72;5039549;28;20023;-79
2023/12/28 06:19:21;;;;;;;2.30;1.25;;;;;;;7.75;100.00;98998.59;5070921;28;20028;-79
2023/12/28 06:21:47;;;;;;;4.18;1.27;;;;;;;7.65;100.00;98988.06;5057039;28;20023;-81
2023/12/28 06:24:12;;;;;;;3.38;1.45;;;;;;;7.33;100.00;98981.06;5068355;28;20023;-81
2023/12/28 06:26:42;;;;;;;9.20;3.05;;;;;;;7.12;100.00;98979.84;5059203;28;20062;-86
2023/12/28 06:29:08;;;;;;;3.95;1.67;;;;;;;6.89;100.00;98963.69;5081126;28;20028;-85
2023/12/28 06:31:35;;;;;;;2.75;1.45;;;;;;;6.95;100.00;98972.88;5060782;28;20066;-84
2023/12/28 06:34:07;;;;;;;7.05;2.13;;;;;;;6.90;100.00;98969.88;5062317;28;20028;-85
2023/12/28 06:36:33;;;;;;;7.93;1.85;;;;;;;6.87;100.00;98973.75;5055585;28;20020;-86
2023/12/28 06:38:59;;;;;;;3.72;1.60;;;;;;;6.82;100.00;98980.69;5062939;28;20028;-86
2023/12/28 06:41:25;;;;;;;4.85;1.40;;;;;;;6.84;100.00;98995.63;5066020;28;20445;-87
2023/12/28 06:43:50;;;;;;;2.28;1.38;;;;;;;6.81;100.00;98985.19;5094091;28;20028;-84
2023/12/28 06:46:16;;;;;;;4.25;1.30;;;;;;;6.73;100.00;98951.16;5064188;28;20481;-81
2023/12/28 06:48:43;;;;;;;1.55;1.08;;;;;;;7.04;100.00;99006.78;5069009;28;20032;-86
2023/12/28 06:51:09;;;;;;;3.03;1.60;;;;;;;7.00;100.00;99006.31;5067771;28;20024;-83
2023/12/28 06:53:34;;;;;;;3.47;1.35;;;;;;;6.87;100.00;98999.81;5058018;28;20027;-84
2023/12/28 06:55:59;;;;;;;3.97;1.40;;;;;;;6.78;100.00;99010.59;5069548;28;20481;-82
2023/12/28 06:58:24;;;;;;;4.30;1.52;;;;;;;6.14;100.00;98934.53;5061119;28;20047;-85
2023/12/28 07:00:50;;;;;;;3.53;1.60;;;;;;;6.73;100.00;99015.69;5091402;28;20070;-84
2023/12/28 07:03:15;;;;;;;2.63;1.10;;;;;;;6.77;100.00;99033.13;5067832;28;20067;-82
2023/12/28 07:05:40;;;;;;;2.92;1.70;;;;;;;6.82;100.00;99035.31;5051834;28;20695;-86
2023/12/28 07:08:06;;;;;;;5.85;1.60;;;;;;;6.83;100.00;99028.06;5067635;28;20027;-84
2023/12/28 07:10:31;;;;;;;7.35;1.50;;;;;;;6.91;100.00;99026.16;5052806;28;20020;-83
2023/12/28 07:12:57;;;;;;;3.20;1.63;;;;;;;6.96;100.00;99029.19;5073215;28;20469;-84
2023/12/28 07:15:22;;;;;;;4.20;1.75;;;;;;;7.08;100.00;99047.66;5059963;28;20024;-82
2023/12/28 07:17:47;;;;;;;2.85;1.50;;;;;;;7.02;100.00;99047.34;5065061;28;20028;-84
2023/12/28 07:20:13;;;;;;;3.67;1.75;;;;;;;6.93;100.00;99036.78;5061738;28;20078;-85
2023/12/28 07:22:38;;;;;;;2.80;1.55;;;;;;;7.21;100.00;99061.38;5080756;28;20024;-84
2023/12/28 07:25:05;;;;;;;3.47;1.75;;;;;;;7.15;100.00;99059.38;5070374;28;20023;-84
2023/12/28 07:27:31;;;;;;;2.90;1.45;;;;;;;7.03;100.00;99056.22;5079170;28;20107;-82
2023/12/28 07:29:56;;;;;;;4.22;1.52;;;;;;;7.06;100.00;99069.34;5065418;28;20059;-85
2023/12/28 07:32:25;;;;;;;3.75;1.58;;;;;;;7.11;100.00;99060.75;5052605;28;20024;-83
2023/12/28 07:34:51;;;;;;;3.55;1.67;;;;;;;7.06;100.00;99047.81;5069541;28;20450;-75
2023/12/28 07:37:16;;;;;;;6.80;1.67;;;;;;;7.08;100.00;99047.66;5081956;28;20111;-76
2023/12/28 07:39:41;;;;;;;3.40;1.55;;;;;;;7.11;100.00;99066.97;5075843;22;21193;-59
2023/12/28 07:42:07;;;;;;;2.58;1.70;;;;;;;7.10;100.00;99062.59;5052027;28;20029;-55
2023/12/28 07:44:32;;;;;;;4.97;1.80;;;;;;;7.09;100.00;99055.53;5059496;28;20042;-55
2023/12/28 07:46:58;;;;;;;7.50;1.75;;;;;;;7.00;100.00;99045.81;5073970;28;20024;-55
2023/12/28 07:49:23;;;;;;;4.60;2.22;;;;;;;7.03;100.00;99051.69;5064408;28;20037;-55
2023/12/28 07:51:48;;;;;;;3.60;1.60;;;;;;;7.05;100.00;99051.53;5062826;28;20032;-55
2023/12/28 07:54:14;;;;;;;5.97;1.77;;;;;;;7.10;100.00;99053.66;5065543;28;20078;-55
2023/12/28 07:56:40;;;;;;;4.60;2.05;;;;;;;7.18;100.00;99062.56;5050032;28;20070;-55
2023/12/28 07:59:06;;;;;;;6.45;2.05;;;;;;;7.18;100.00;99062.56;5068715;28;20059;-55
2023/12/28 08:01:33;;;;;;;6.20;2.97;;;;;;;7.19;100.00;99058.84;5082517;28;20063;-55
2023/12/28 08:03:59;;;;;;;7.18;3.83;;;;;;;7.24;100.00;99066.41;5066052;28;20025;-54
2023/12/28 08:06:25;;;;;;;9.85;4.38;;;;;;;7.22;100.00;99058.50;5069133;28;20052;-54
2023/12/28 08:08:50;;;;;;;8.48;4.30;;;;;;;7.24;100.00;99052.94;5065005;28;20074;-55
2023/12/28 08:11:16;;;;;;;8.23;3.78;;;;;;;7.30;100.00;99068.38;5064385;28;20033;-54
2023/12/28 08:13:41;;;;;;;15.93;7.50;;;;;;;7.25;100.00;99074.28;5065524;28;20093;-54
2023/12/28 08:16:07;;;;;;;16.08;7.35;;;;;;;7.16;100.00;99088.81;5076002;28;20071;-54
2023/12/28 08:18:32;;;;;;;11.43;6.00;;;;;;;6.93;100.00;99072.56;5067096;28;20031;-54
2023/12/28 08:20:58;;;;;;;6.75;4.25;;;;;;;6.90;100.00;99066.72;5073581;28;20066;-53
2023/12/28 08:23:24;;;;;;;6.90;3.65;;;;;;;6.85;100.00;99058.31;5071418;28;20025;-53
2023/12/28 08:25:49;;;;;;;10.18;3.72;;;;;;;6.95;100.00;99059.78;5065091;28;20447;-53
2023/12/28 08:28:15;;;;;;;8.45;3.60;;;;;;;7.06;100.00;99053.19;5057347;28;20040;-54
2023/12/28 08:30:40;;;;;;;10.98;3.72;;;;;;;7.10;100.00;99051.84;5071365;28;20039;-54
2023/12/28 08:33:06;;;;;;;9.48;3.60;;;;;;;7.10;100.00;99059.91;5071942;28;20048;-53
2023/12/28 08:35:31;;;;;;;6.25;3.13;;;;;;;7.13;100.00;99059.56;5072909;28;20029;-54
2023/12/28 08:37:57;;;;;;;9.13;3.83;;;;;;;7.16;100.00;99055.69;5064198;28;20420;-54
2023/12/28 08:40:22;;;;;;;11.05;3.60;;;;;;;7.14;100.00;99055.84;5070107;28;20078;-59
2023/12/28 08:42:47;;;;;;;12.18;3.42;;;;;;;7.10;100.00;99059.03;5072832;28;20024;-59
2023/12/28 08:45:13;;;;;;;5.90;2.80;;;;;;;7.11;100.00;99058.88;5072260;28;20020;-60
2023/12/28 08:47:38;;;;;;;9.18;3.17;;;;;;;7.12;100.00;99057.84;5045118;28;20522;-59
2023/12/28 08:50:05;;;;;;;6.53;2.90;;;;;;;7.13;100.00;99058.72;5073113;28;20051;-59
2023/12/28 08:52:30;;;;;;;7.90;3.00;;;;;;;7.15;100.00;99064.75;5079612;28;20077;-59
2023/12/28 08:54:56;;;;;;;6.63;3.10;;;;;;;7.21;100.00;99078.34;5065109;28;20021;-59
2023/12/28 08:57:21;;;;;;;6.28;2.67;;;;;;;7.30;100.00;99081.84;5065847;28;20051;-60
2023/12/28 08:59:47;;;;;;;14.20;5.07;;;;;;;7.34;100.00;99087.72;5061171;28;20113;-60
2023/12/28 09:02:12;;;;;;;11.60;4.80;;;;;;;7.38;100.00;99089.03;5067006;28;20491;-60
2023/12/28 09:04:38;;;;;;;7.90;4.63;;;;;;;7.44;100.00;99089.19;5067659;28;20065;-60
2023/12/28 09:07:04;;;;;;;9.18;3.55;;;;;;;7.40;100.00;99073.56;5070920;28;20035;-60
2023/12/28 09:09:30;;;;;;;7.65;3.88;;;;;;;7.34;100.00;99066.19;5058889;28;20035;-60
2023/12/28 09:11:55;;;;;;;12.63;5.93;;;;;;;7.23;100.00;99068.25;5069780;28;20729;-60
2023/12/28 09:14:21;;;;;;;12.32;6.50;;;;;;;7.25;100.00;99076.97;5073199;28;20698;-59
2023/12/28 09:16:47;;;;;;;10.77;5.72;;;;;;;7.34;100.00;99071.56;5072653;28;20025;-60
2023/12/28 09:19:13;;;;;;;8.27;4.15;;;;;;;7.36;100.00;99070.38;5071112;28;20073;-60
2023/12/28 09:21:38;;;;;;;8.60;4.47;;;;;;;7.40;100.00;99078.94;5067115;28;20032;-60
2023/12/28 09:24:04;;;;;;;10.38;5.47;;;;;;;7.52;100.00;99085.63;5069433;28;20021;-60
2023/12/28 09:26:29;;;;;;;11.32;6.10;;;;;;;7.62;100.00;99088.91;5063117;28;20047;-60
2023/12/28 09:28:55;;;;;;;13.20;6.28;;;;;;;7.83;100.00;99095.50;5062901;28;20041;-60
2023/12/28 09:31:20;;;;;;;9.20;4.68;;;;;;;8.04;100.00;99087.63;5069336;28;20147;-60
2023/12/28 09:33:46;;;;;;;7.57;3.25;;;;;;;8.18;100.00;99086.00;5058522;28;20025;-60
2023/12/28 09:36:14;;;;;;;7.20;3.25;;;;;;;8.32;100.00;99097.84;5066173;28;20106;-60
2023/12/28 09:38:40;;;;;;;7.00;3.23;;;;;;;8.48;100.00;99103.09;5066178;28;20480;-60
2023/12/28 09:41:16;;;;;;;12.48;4.63;;;;;;;8.58;100.00;99102.84;5068345;28;20090;-60
2023/12/28 09:43:44;;;;;;;12.70;5.78;;;;;;;8.65;100.00;99109.19;5058972;28;20099;-60
2023/12/28 09:46:11;;;;;;;10.70;5.80;;;;;;;8.73;100.00;99109.13;5066662;28;20028;-60
2023/12/28 09:48:40;;;;;;;12.48;5.82;;;;;;;8.63;100.00;99118.50;5068369;28;20029;-60
2023/12/28 09:51:06;;;;;;;;;;;;;;;8.55;100.00;99114.84;5072576;28;20033;-59
2023/12/28 09:53:31;;;;;;;12.90;5.38;;;;;;;8.53;100.00;99119.56;5071467;28;19912;-60
2023/12/28 09:55:58;;;;;;;6.13;3.45;;;;;;;8.55;100.00;99119.41;5063083;28;20028;-60
2023/12/28 09:58:24;;;;;;;25.83;8.13;;;;;;;8.50;100.00;99113.72;5070653;28;20020;-60
2023/12/28 10:00:50;;;;;;;22.02;8.00;;;;;;;8.31;100.00;99113.19;5072165;28;20035;-60
2023/12/28 10:03:17;;;;;;;21.17;8.52;;;;;;;8.28;100.00;99127.03;5069243;28;20035;-60
2023/12/28 10:05:43;;;;;;;29.67;9.73;;;;;;;8.24;100.00;99135.63;5075104;28;20773;-60
2023/12/28 10:08:13;;;;;;;19.20;8.13;;;;;;;8.24;100.00;99125.69;5071697;28;20030;-60
2023/12/28 10:10:40;;;;;;;;;;;;;;;8.18;100.00;99128.28;5072454;28;20031;-60
2023/12/28 10:13:07;;;;;;;14.32;5.72;;;;;;;8.18;100.00;99134.50;5063554;28;20351;-60
2023/12/28 10:15:35;;;;;;;10.02;5.10;;;;;;;8.21;100.00;99136.84;5075513;28;20031;-60
2023/12/28 10:18:00;;;;;;;11.25;5.65;;;;;;;8.30;100.00;99132.22;5059827;28;20530;-60
2023/12/28 10:20:29;;;;;;;9.50;4.88;;;;;;;8.22;100.00;99132.28;5069966;28;20020;-60
2023/12/28 10:22:54;;;;;;;8.50;4.32;;;;;;;8.24;100.00;99133.78;5071517;28;20028;-60
2023/12/28 10:25:21;;;;;;;15.57;5.07;;;;;;;8.31;100.00;99137.44;5068767;28;20035;-60
2023/12/28 10:27:51;;;;;;;12.18;5.85;;;;;;;8.35;100.00;99127.13;5071586;28;20017;-61
2023/12/28 10:30:16;;;;;;;16.88;7.65;;;;;;;8.30;100.00;99122.25;5065845;28;20092;-61
2023/12/28 10:32:42;;;;;;;10.32;4.60;;;;;;;8.14;100.00;99127.78;5080253;28;20024;-62
2023/12/28 10:35:08;;;;;;;5.60;3.72;;;;;;;8.08;100.00;99113.19;5075897;28;20034;-62
2023/12/28 10:37:35;;;;;;;8.77;3.17;;;;;;;8.21;100.00;99119.84;5071742;28;22273;-61
2023/12/28 10:40:06;;;;;;;7.35;3.92;;;;;;;8.28;100.00;99116.25;5055553;28;20371;-61
2023/12/28 10:42:33;;;;;;;6.80;3.33;;;;;;;8.37;100.00;99100.00;5074116;28;20017;-61
2023/12/28 10:45:05;;;;;;;7.55;4.68;;;;;;;8.54;100.00;99090.75;5070431;28;20024;-61
2023/12/28 10:47:37;;;;;;;8.50;4.70;;;;;;;8.67;100.00;99084.72;5065309;28;20044;-60
2023/12/28 10:50:07;;;;;;;7.80;4.00;;;;;;;8.77;100.00;99091.53;5072635;28;20079;-61
2023/12/28 10:52:34;;;;;;;8.82;4.13;;;;;;;8.76;100.00;99087.16;5070101;28;20017;-61
2023/12/28 10:55:19;;;;;;;8.15;4.28;;;;;;;8.89;100.00;99094.63;5039189;28;20405;-61
2023/12/28 10:57:59;;;;;;;7.65;4.50;;;;;;;9.08;100.00;99093.22;5071622;28;20021;-61
2023/12/28 11:00:26;;;;;;;11.02;5.40;;;;;;;9.09;100.00;99094.03;5073866;28;20039;-61
2023/12/28 11:02:58;;;;;;;13.70;7.90;;;;;;;9.11;100.00;99092.00;5074473;28;20039;-61
2023/12/28 11:05:24;;;;;;;16.45;8.90;;;;;;;8.96;100.00;99082.06;5075143;28;20504;-61
2023/12/28 11:07:55;;;;;;;15.82;8.30;;;;;;;8.97;100.00;99086.44;5075261;28;20095;-61
2023/12/28 11:10:23;;;;;;;16.85;8.30;;;;;;;8.90;100.00;99063.91;5067122;28;20534;-61
2023/12/28 11:12:51;;;;;;;17.08;8.43;;;;;;;9.04;100.00;99081.13;5069696;28;20028;-60
2023/12/28 11:15:18;;;;;;;13.75;7.22;;;;;;;9.03;100.00;99067.81;5065079;28;20043;-61
2023/12/28 11:17:44;;;;;;;15.40;7.20;;;;;;;9.11;100.00;99068.53;5048524;28;20017;-61
2023/12/28 11:20:10;;;;;;;12.57;6.60;;;;;;;9.15;100.00;99072.56;5067420;28;20107;-60
2023/12/28 11:22:36;;;;;;;10.85;6.05;;;;;;;9.23;100.00;99060.00;5057941;28;20024;-61
2023/12/28 11:25:03;;;;;;;13.70;6.05;;;;;;;9.25;100.00;99063.31;5065958;28;20044;-61
2023/12/28 11:27:38;;;;;;;13.93;5.90;;;;;;;9.09;100.00;99064.34;5062995;28;20108;-61
2023/12/28 11:30:04;;;;;;;11.77;6.05;;;;;;;9.05;100.00;99068.47;5072735;28;20372;-61